sensor_id;sensor_type;location;lat;lon;timestamp;temperature;humidity
43949;DHT22;29429;51.074;13.764;2022-07-29T00:01:01;15.60;73.30
43949;DHT22;29429;51.074;13.764;2022-07-29T00:03:28;15.70;73.40
43949;DHT22;29429;51.074;13.764;2022-07-29T00:05:55;15.70;73.60
43949;DHT22;29429;51.074;13.764;2022-07-29T00:08:22;15.60;73.60
43949;DHT22;29429;51.074;13.764;2022-07-29T00:10:50;15.60;74.40
43949;DHT22;29429;51.074;13.764;2022-07-29T00:13:17;15.60;73.80
43949;DHT22;29429;51.074;13.764;2022-07-29T00:15:58;15.70;74.20
43949;DHT22;29429;51.074;13.764;2022-07-29T00:18:31;15.60;74.30
43949;DHT22;29429;51.074;13.764;2022-07-29T00:20:58;15.50;74.50
43949;DHT22;29429;51.074;13.764;2022-07-29T00:23:25;15.70;74.70
43949;DHT22;29429;51.074;13.764;2022-07-29T00:25:52;15.60;74.90
43949;DHT22;29429;51.074;13.764;2022-07-29T00:28:19;15.60;75.40
43949;DHT22;29429;51.074;13.764;2022-07-29T00:30:46;15.60;75.70
43949;DHT22;29429;51.074;13.764;2022-07-29T00:33:13;15.60;75.80
43949;DHT22;29429;51.074;13.764;2022-07-29T00:35:40;15.60;76.10
43949;DHT22;29429;51.074;13.764;2022-07-29T00:38:19;15.50;76.40
43949;DHT22;29429;51.074;13.764;2022-07-29T00:40:47;15.60;77.20
43949;DHT22;29429;51.074;13.764;2022-07-29T00:43:14;15.60;77.10
43949;DHT22;29429;51.074;13.764;2022-07-29T00:45:43;15.50;76.90
43949;DHT22;29429;51.074;13.764;2022-07-29T00:48:10;15.40;77.20
43949;DHT22;29429;51.074;13.764;2022-07-29T00:50:37;15.50;77.70
43949;DHT22;29429;51.074;13.764;2022-07-29T00:53:08;15.30;78.00
43949;DHT22;29429;51.074;13.764;2022-07-29T00:55:37;15.30;78.50
43949;DHT22;29429;51.074;13.764;2022-07-29T00:58:04;15.20;78.50
43949;DHT22;29429;51.074;13.764;2022-07-29T01:00:32;15.20;78.70
43949;DHT22;29429;51.074;13.764;2022-07-29T01:03:00;15.10;78.90
43949;DHT22;29429;51.074;13.764;2022-07-29T01:05:28;15.10;79.30
43949;DHT22;29429;51.074;13.764;2022-07-29T01:08:16;15.00;79.50
43949;DHT22;29429;51.074;13.764;2022-07-29T01:10:45;14.90;79.60
43949;DHT22;29429;51.074;13.764;2022-07-29T01:13:15;15.00;80.10
43949;DHT22;29429;51.074;13.764;2022-07-29T01:15:45;15.00;80.40
43949;DHT22;29429;51.074;13.764;2022-07-29T01:18:39;14.90;80.40
43949;DHT22;29429;51.074;13.764;2022-07-29T01:21:53;14.90;80.60
43949;DHT22;29429;51.074;13.764;2022-07-29T01:30:01;14.80;80.80
43949;DHT22;29429;51.074;13.764;2022-07-29T01:32:36;14.80;81.10
43949;DHT22;29429;51.074;13.764;2022-07-29T01:35:05;14.60;81.40
43949;DHT22;29429;51.074;13.764;2022-07-29T01:37:45;14.70;81.80
43949;DHT22;29429;51.074;13.764;2022-07-29T01:40:27;14.60;81.80
43949;DHT22;29429;51.074;13.764;2022-07-29T01:43:06;14.70;82.10
43949;DHT22;29429;51.074;13.764;2022-07-29T01:46:01;14.60;82.50
43949;DHT22;29429;51.074;13.764;2022-07-29T01:48:42;14.60;82.80
43949;DHT22;29429;51.074;13.764;2022-07-29T01:51:30;14.60;83.00
43949;DHT22;29429;51.074;13.764;2022-07-29T01:54:14;14.60;83.30
43949;DHT22;29429;51.074;13.764;2022-07-29T01:56:45;14.70;83.60
43949;DHT22;29429;51.074;13.764;2022-07-29T01:59:16;14.80;84.00
43949;DHT22;29429;51.074;13.764;2022-07-29T02:01:48;14.70;84.10
43949;DHT22;29429;51.074;13.764;2022-07-29T02:04:20;14.90;84.40
43949;DHT22;29429;51.074;13.764;2022-07-29T02:07:00;14.80;84.50
43949;DHT22;29429;51.074;13.764;2022-07-29T02:09:30;14.70;84.50
43949;DHT22;29429;51.074;13.764;2022-07-29T02:12:00;14.90;85.30
43949;DHT22;29429;51.074;13.764;2022-07-29T02:14:33;14.70;85.50
43949;DHT22;29429;51.074;13.764;2022-07-29T02:17:03;14.80;85.90
43949;DHT22;29429;51.074;13.764;2022-07-29T02:19:32;14.80;86.00
43949;DHT22;29429;51.074;13.764;2022-07-29T02:22:01;14.90;86.40
43949;DHT22;29429;51.074;13.764;2022-07-29T02:24:30;15.00;86.40
43949;DHT22;29429;51.074;13.764;2022-07-29T02:26:59;14.80;86.30
43949;DHT22;29429;51.074;13.764;2022-07-29T02:29:28;14.90;86.50
43949;DHT22;29429;51.074;13.764;2022-07-29T02:31:58;15.00;86.80
43949;DHT22;29429;51.074;13.764;2022-07-29T02:34:27;14.90;86.90
43949;DHT22;29429;51.074;13.764;2022-07-29T02:36:55;14.90;87.10
43949;DHT22;29429;51.074;13.764;2022-07-29T02:39:24;14.90;87.10
43949;DHT22;29429;51.074;13.764;2022-07-29T02:42:05;14.90;87.30
43949;DHT22;29429;51.074;13.764;2022-07-29T02:44:35;14.90;87.50
43949;DHT22;29429;51.074;13.764;2022-07-29T02:47:25;14.90;87.90
43949;DHT22;29429;51.074;13.764;2022-07-29T02:50:26;14.70;88.30
43949;DHT22;29429;51.074;13.764;2022-07-29T02:53:05;14.80;88.70
43949;DHT22;29429;51.074;13.764;2022-07-29T02:55:40;14.60;88.90
43949;DHT22;29429;51.074;13.764;2022-07-29T02:58:34;14.80;89.40
43949;DHT22;29429;51.074;13.764;2022-07-29T03:01:16;14.70;89.40
43949;DHT22;29429;51.074;13.764;2022-07-29T03:03:49;14.70;89.40
43949;DHT22;29429;51.074;13.764;2022-07-29T03:06:21;14.70;89.60
43949;DHT22;29429;51.074;13.764;2022-07-29T03:09:06;14.70;89.90
43949;DHT22;29429;51.074;13.764;2022-07-29T03:11:40;14.70;90.10
43949;DHT22;29429;51.074;13.764;2022-07-29T03:14:19;14.70;90.10
43949;DHT22;29429;51.074;13.764;2022-07-29T03:16:48;14.70;90.10
43949;DHT22;29429;51.074;13.764;2022-07-29T03:19:16;14.80;90.20
43949;DHT22;29429;51.074;13.764;2022-07-29T03:21:44;14.70;90.10
43949;DHT22;29429;51.074;13.764;2022-07-29T03:24:23;14.80;90.20
43949;DHT22;29429;51.074;13.764;2022-07-29T03:26:58;14.80;90.10
43949;DHT22;29429;51.074;13.764;2022-07-29T03:29:26;14.80;90.30
43949;DHT22;29429;51.074;13.764;2022-07-29T03:32:05;14.80;89.90
43949;DHT22;29429;51.074;13.764;2022-07-29T03:34:35;14.80;90.10
43949;DHT22;29429;51.074;13.764;2022-07-29T03:37:05;14.90;89.90
43949;DHT22;29429;51.074;13.764;2022-07-29T03:39:36;14.80;90.00
43949;DHT22;29429;51.074;13.764;2022-07-29T03:42:06;14.80;90.10
43949;DHT22;29429;51.074;13.764;2022-07-29T03:44:37;14.70;90.30
43949;DHT22;29429;51.074;13.764;2022-07-29T03:47:06;14.80;90.40
43949;DHT22;29429;51.074;13.764;2022-07-29T03:49:36;14.90;90.40
43949;DHT22;29429;51.074;13.764;2022-07-29T03:52:05;14.80;90.40
43949;DHT22;29429;51.074;13.764;2022-07-29T03:54:33;14.80;90.40
43949;DHT22;29429;51.074;13.764;2022-07-29T03:57:01;14.80;90.60
43949;DHT22;29429;51.074;13.764;2022-07-29T03:59:31;14.80;90.60
43949;DHT22;29429;51.074;13.764;2022-07-29T04:02:02;14.80;90.70
43949;DHT22;29429;51.074;13.764;2022-07-29T04:04:37;14.80;90.80
43949;DHT22;29429;51.074;13.764;2022-07-29T04:07:04;14.80;90.80
43949;DHT22;29429;51.074;13.764;2022-07-29T04:09:31;14.80;90.90
43949;DHT22;29429;51.074;13.764;2022-07-29T04:11:59;14.80;91.00
43949;DHT22;29429;51.074;13.764;2022-07-29T04:14:31;14.90;91.00
43949;DHT22;29429;51.074;13.764;2022-07-29T04:17:03;14.90;91.10
43949;DHT22;29429;51.074;13.764;2022-07-29T04:19:31;14.90;91.20
43949;DHT22;29429;51.074;13.764;2022-07-29T04:22:00;15.00;91.20
43949;DHT22;29429;51.074;13.764;2022-07-29T04:24:28;15.00;91.30
43949;DHT22;29429;51.074;13.764;2022-07-29T04:26:55;15.10;91.30
43949;DHT22;29429;51.074;13.764;2022-07-29T04:29:22;15.20;91.30
43949;DHT22;29429;51.074;13.764;2022-07-29T04:31:49;15.30;91.30
43949;DHT22;29429;51.074;13.764;2022-07-29T04:34:16;15.30;91.10
43949;DHT22;29429;51.074;13.764;2022-07-29T04:36:43;15.50;91.10
43949;DHT22;29429;51.074;13.764;2022-07-29T04:39:10;15.50;91.10
43949;DHT22;29429;51.074;13.764;2022-07-29T04:41:37;15.60;90.80
43949;DHT22;29429;51.074;13.764;2022-07-29T04:44:04;15.70;90.80
43949;DHT22;29429;51.074;13.764;2022-07-29T04:46:38;15.70;90.70
43949;DHT22;29429;51.074;13.764;2022-07-29T04:49:05;15.70;90.70
43949;DHT22;29429;51.074;13.764;2022-07-29T04:51:32;15.80;90.80
43949;DHT22;29429;51.074;13.764;2022-07-29T04:53:59;15.70;90.70
43949;DHT22;29429;51.074;13.764;2022-07-29T04:56:26;15.80;90.70
43949;DHT22;29429;51.074;13.764;2022-07-29T04:58:54;15.90;90.70
43949;DHT22;29429;51.074;13.764;2022-07-29T05:01:21;15.90;90.80
43949;DHT22;29429;51.074;13.764;2022-07-29T05:03:48;16.00;90.80
43949;DHT22;29429;51.074;13.764;2022-07-29T05:06:14;16.10;90.90
43949;DHT22;29429;51.074;13.764;2022-07-29T05:08:41;16.20;90.90
43949;DHT22;29429;51.074;13.764;2022-07-29T05:11:08;16.30;91.30
43949;DHT22;29429;51.074;13.764;2022-07-29T05:13:38;16.40;91.00
43949;DHT22;29429;51.074;13.764;2022-07-29T05:16:13;16.40;91.00
43949;DHT22;29429;51.074;13.764;2022-07-29T05:18:40;16.60;91.00
43949;DHT22;29429;51.074;13.764;2022-07-29T05:21:08;16.70;91.00
43949;DHT22;29429;51.074;13.764;2022-07-29T05:23:35;16.70;90.90
43949;DHT22;29429;51.074;13.764;2022-07-29T05:26:02;16.90;90.80
43949;DHT22;29429;51.074;13.764;2022-07-29T05:28:32;16.90;90.60
43949;DHT22;29429;51.074;13.764;2022-07-29T05:31:00;16.90;90.50
43949;DHT22;29429;51.074;13.764;2022-07-29T05:33:27;17.10;90.40
43949;DHT22;29429;51.074;13.764;2022-07-29T05:36:03;17.10;90.40
43949;DHT22;29429;51.074;13.764;2022-07-29T05:38:33;17.10;90.10
43949;DHT22;29429;51.074;13.764;2022-07-29T05:41:02;17.20;90.00
43949;DHT22;29429;51.074;13.764;2022-07-29T05:43:29;17.20;89.80
43949;DHT22;29429;51.074;13.764;2022-07-29T05:45:57;17.30;90.00
43949;DHT22;29429;51.074;13.764;2022-07-29T05:48:24;17.20;90.00
43949;DHT22;29429;51.074;13.764;2022-07-29T05:50:52;17.10;90.00
43949;DHT22;29429;51.074;13.764;2022-07-29T05:53:19;17.40;90.00
43949;DHT22;29429;51.074;13.764;2022-07-29T05:55:47;17.50;90.00
43949;DHT22;29429;51.074;13.764;2022-07-29T05:58:15;17.70;89.20
43949;DHT22;29429;51.074;13.764;2022-07-29T06:00:42;17.80;88.10
43949;DHT22;29429;51.074;13.764;2022-07-29T06:03:09;17.90;88.10
43949;DHT22;29429;51.074;13.764;2022-07-29T06:05:36;18.00;87.70
43949;DHT22;29429;51.074;13.764;2022-07-29T06:08:03;18.10;87.10
43949;DHT22;29429;51.074;13.764;2022-07-29T06:10:32;18.30;86.60
43949;DHT22;29429;51.074;13.764;2022-07-29T06:12:59;18.40;86.00
43949;DHT22;29429;51.074;13.764;2022-07-29T06:15:26;18.50;85.30
43949;DHT22;29429;51.074;13.764;2022-07-29T06:17:53;18.60;84.70
43949;DHT22;29429;51.074;13.764;2022-07-29T06:20:27;18.60;84.70
43949;DHT22;29429;51.074;13.764;2022-07-29T06:22:57;18.70;85.00
43949;DHT22;29429;51.074;13.764;2022-07-29T06:25:25;18.90;84.30
43949;DHT22;29429;51.074;13.764;2022-07-29T06:27:52;19.00;83.70
43949;DHT22;29429;51.074;13.764;2022-07-29T06:30:19;19.10;83.30
43949;DHT22;29429;51.074;13.764;2022-07-29T06:32:46;19.30;82.00
43949;DHT22;29429;51.074;13.764;2022-07-29T06:35:13;19.40;82.00
43949;DHT22;29429;51.074;13.764;2022-07-29T06:38:01;19.50;81.50
43949;DHT22;29429;51.074;13.764;2022-07-29T06:40:43;19.70;81.00
43949;DHT22;29429;51.074;13.764;2022-07-29T06:43:31;19.80;80.30
43949;DHT22;29429;51.074;13.764;2022-07-29T06:46:02;19.90;79.50
43949;DHT22;29429;51.074;13.764;2022-07-29T06:48:32;20.00;79.20
43949;DHT22;29429;51.074;13.764;2022-07-29T06:51:00;20.10;78.40
43949;DHT22;29429;51.074;13.764;2022-07-29T06:53:28;20.10;78.40
43949;DHT22;29429;51.074;13.764;2022-07-29T06:55:57;20.20;78.40
43949;DHT22;29429;51.074;13.764;2022-07-29T06:58:26;20.10;78.00
43949;DHT22;29429;51.074;13.764;2022-07-29T07:00:56;20.30;77.50
43949;DHT22;29429;51.074;13.764;2022-07-29T07:03:24;20.50;77.20
43949;DHT22;29429;51.074;13.764;2022-07-29T07:05:52;20.40;77.30
43949;DHT22;29429;51.074;13.764;2022-07-29T07:08:21;20.60;75.90
43949;DHT22;29429;51.074;13.764;2022-07-29T07:10:51;20.80;75.50
43949;DHT22;29429;51.074;13.764;2022-07-29T07:13:19;21.00;74.70
43949;DHT22;29429;51.074;13.764;2022-07-29T07:15:46;21.10;74.40
43949;DHT22;29429;51.074;13.764;2022-07-29T07:18:15;21.20;73.70
43949;DHT22;29429;51.074;13.764;2022-07-29T07:20:42;21.50;73.30
43949;DHT22;29429;51.074;13.764;2022-07-29T07:23:10;21.60;71.80
43949;DHT22;29429;51.074;13.764;2022-07-29T07:25:37;21.70;71.80
43949;DHT22;29429;51.074;13.764;2022-07-29T07:28:04;21.80;71.50
43949;DHT22;29429;51.074;13.764;2022-07-29T07:30:31;21.90;71.70
43949;DHT22;29429;51.074;13.764;2022-07-29T07:32:59;22.00;70.90
43949;DHT22;29429;51.074;13.764;2022-07-29T07:35:26;22.00;70.90
43949;DHT22;29429;51.074;13.764;2022-07-29T07:37:55;22.00;69.90
43949;DHT22;29429;51.074;13.764;2022-07-29T07:40:22;21.90;69.90
43949;DHT22;29429;51.074;13.764;2022-07-29T07:42:50;21.90;70.00
43949;DHT22;29429;51.074;13.764;2022-07-29T07:45:17;21.80;70.00
43949;DHT22;29429;51.074;13.764;2022-07-29T07:47:44;22.00;70.80
43949;DHT22;29429;51.074;13.764;2022-07-29T07:50:11;22.10;69.80
43949;DHT22;29429;51.074;13.764;2022-07-29T07:52:50;22.20;69.50
43949;DHT22;29429;51.074;13.764;2022-07-29T07:55:19;22.30;69.30
43949;DHT22;29429;51.074;13.764;2022-07-29T07:57:47;22.50;69.50
43949;DHT22;29429;51.074;13.764;2022-07-29T08:00:16;22.70;68.90
43949;DHT22;29429;51.074;13.764;2022-07-29T08:02:43;22.80;68.70
43949;DHT22;29429;51.074;13.764;2022-07-29T08:05:12;23.00;68.20
43949;DHT22;29429;51.074;13.764;2022-07-29T08:07:44;23.10;67.30
43949;DHT22;29429;51.074;13.764;2022-07-29T08:10:14;23.10;66.10
43949;DHT22;29429;51.074;13.764;2022-07-29T08:13:05;23.10;66.20
43949;DHT22;29429;51.074;13.764;2022-07-29T08:15:33;23.20;66.30
43949;DHT22;29429;51.074;13.764;2022-07-29T08:18:01;23.40;66.40
43949;DHT22;29429;51.074;13.764;2022-07-29T08:20:35;23.60;66.10
43949;DHT22;29429;51.074;13.764;2022-07-29T08:23:03;23.80;65.10
43949;DHT22;29429;51.074;13.764;2022-07-29T08:25:43;24.00;64.30
43949;DHT22;29429;51.074;13.764;2022-07-29T08:28:12;24.10;63.80
43949;DHT22;29429;51.074;13.764;2022-07-29T08:34:25;24.60;63.30
43949;DHT22;29429;51.074;13.764;2022-07-29T08:36:56;24.90;62.10
43949;DHT22;29429;51.074;13.764;2022-07-29T08:39:43;25.20;62.10
43949;DHT22;29429;51.074;13.764;2022-07-29T08:42:11;25.20;61.90
43949;DHT22;29429;51.074;13.764;2022-07-29T08:44:38;25.30;61.80
43949;DHT22;29429;51.074;13.764;2022-07-29T08:47:05;25.40;60.70
43949;DHT22;29429;51.074;13.764;2022-07-29T08:49:35;25.60;60.00
43949;DHT22;29429;51.074;13.764;2022-07-29T08:52:02;25.60;60.00
43949;DHT22;29429;51.074;13.764;2022-07-29T08:54:29;25.70;60.00
43949;DHT22;29429;51.074;13.764;2022-07-29T08:56:57;25.70;60.10
43949;DHT22;29429;51.074;13.764;2022-07-29T08:59:27;25.90;60.00
43949;DHT22;29429;51.074;13.764;2022-07-29T09:01:58;26.00;60.00
43949;DHT22;29429;51.074;13.764;2022-07-29T09:04:33;26.10;59.00
43949;DHT22;29429;51.074;13.764;2022-07-29T09:07:04;26.30;58.00
43949;DHT22;29429;51.074;13.764;2022-07-29T09:09:33;26.40;58.00
43949;DHT22;29429;51.074;13.764;2022-07-29T09:12:01;26.60;58.00
43949;DHT22;29429;51.074;13.764;2022-07-29T09:14:28;26.80;58.10
43949;DHT22;29429;51.074;13.764;2022-07-29T09:16:56;27.00;57.30
43949;DHT22;29429;51.074;13.764;2022-07-29T09:19:26;27.10;56.80
43949;DHT22;29429;51.074;13.764;2022-07-29T09:21:57;27.40;56.50
43949;DHT22;29429;51.074;13.764;2022-07-29T09:24:28;27.60;55.60
43949;DHT22;29429;51.074;13.764;2022-07-29T09:27:24;27.80;55.10
43949;DHT22;29429;51.074;13.764;2022-07-29T09:30:14;28.10;54.60
43949;DHT22;29429;51.074;13.764;2022-07-29T09:32:58;28.20;53.80
43949;DHT22;29429;51.074;13.764;2022-07-29T09:35:28;28.30;53.80
43949;DHT22;29429;51.074;13.764;2022-07-29T09:37:56;28.40;53.00
43949;DHT22;29429;51.074;13.764;2022-07-29T09:40:27;28.50;53.00
43949;DHT22;29429;51.074;13.764;2022-07-29T09:42:54;28.60;52.60
43949;DHT22;29429;51.074;13.764;2022-07-29T09:45:32;28.70;52.40
43949;DHT22;29429;51.074;13.764;2022-07-29T09:48:16;28.80;52.40
43949;DHT22;29429;51.074;13.764;2022-07-29T09:50:46;28.80;51.70
43949;DHT22;29429;51.074;13.764;2022-07-29T09:53:37;28.70;51.80
43949;DHT22;29429;51.074;13.764;2022-07-29T09:56:04;28.70;51.70
43949;DHT22;29429;51.074;13.764;2022-07-29T09:58:32;28.60;51.80
43949;DHT22;29429;51.074;13.764;2022-07-29T10:01:02;28.60;51.10
43949;DHT22;29429;51.074;13.764;2022-07-29T10:03:29;28.60;51.30
43949;DHT22;29429;51.074;13.764;2022-07-29T10:06:10;28.60;51.40
43949;DHT22;29429;51.074;13.764;2022-07-29T10:08:41;28.70;51.50
43949;DHT22;29429;51.074;13.764;2022-07-29T10:11:10;28.80;50.90
43949;DHT22;29429;51.074;13.764;2022-07-29T10:13:42;28.90;50.10
43949;DHT22;29429;51.074;13.764;2022-07-29T10:16:11;29.00;50.20
43949;DHT22;29429;51.074;13.764;2022-07-29T10:18:43;29.20;49.80
43949;DHT22;29429;51.074;13.764;2022-07-29T10:21:11;29.30;49.60
43949;DHT22;29429;51.074;13.764;2022-07-29T10:23:59;29.30;49.20
43949;DHT22;29429;51.074;13.764;2022-07-29T10:26:28;29.20;49.20
43949;DHT22;29429;51.074;13.764;2022-07-29T10:28:56;29.10;49.00
43949;DHT22;29429;51.074;13.764;2022-07-29T10:31:29;29.00;49.20
43949;DHT22;29429;51.074;13.764;2022-07-29T10:40:54;29.10;48.80
43949;DHT22;29429;51.074;13.764;2022-07-29T10:43:47;29.00;48.80
43949;DHT22;29429;51.074;13.764;2022-07-29T10:46:17;28.90;49.30
43949;DHT22;29429;51.074;13.764;2022-07-29T10:49:04;28.90;49.50
43949;DHT22;29429;51.074;13.764;2022-07-29T10:54:18;28.50;49.30
43949;DHT22;29429;51.074;13.764;2022-07-29T10:56:47;28.60;49.30
43949;DHT22;29429;51.074;13.764;2022-07-29T11:01:50;29.30;49.40
43949;DHT22;29429;51.074;13.764;2022-07-29T11:05:01;29.50;48.20
43949;DHT22;29429;51.074;13.764;2022-07-29T11:07:30;29.80;47.20
43949;DHT22;29429;51.074;13.764;2022-07-29T11:15:21;29.50;46.80
43949;DHT22;29429;51.074;13.764;2022-07-29T11:20:32;29.60;47.00
43949;DHT22;29429;51.074;13.764;2022-07-29T11:31:39;29.80;46.50
43949;DHT22;29429;51.074;13.764;2022-07-29T11:34:30;29.80;46.70
43949;DHT22;29429;51.074;13.764;2022-07-29T11:39:37;29.90;46.80
43949;DHT22;29429;51.074;13.764;2022-07-29T11:45:03;29.90;46.60
43949;DHT22;29429;51.074;13.764;2022-07-29T11:47:57;30.00;47.50
43949;DHT22;29429;51.074;13.764;2022-07-29T11:50:46;30.10;46.30
43949;DHT22;29429;51.074;13.764;2022-07-29T11:53:14;30.10;46.10
43949;DHT22;29429;51.074;13.764;2022-07-29T11:55:42;30.10;46.10
43949;DHT22;29429;51.074;13.764;2022-07-29T11:58:21;30.20;46.40
43949;DHT22;29429;51.074;13.764;2022-07-29T12:00:53;30.50;45.90
43949;DHT22;29429;51.074;13.764;2022-07-29T12:03:27;30.60;45.10
43949;DHT22;29429;51.074;13.764;2022-07-29T12:06:01;30.50;45.60
43949;DHT22;29429;51.074;13.764;2022-07-29T12:08:57;30.40;45.60
43949;DHT22;29429;51.074;13.764;2022-07-29T12:11:24;30.30;46.40
43949;DHT22;29429;51.074;13.764;2022-07-29T12:13:52;30.50;46.50
43949;DHT22;29429;51.074;13.764;2022-07-29T12:16:20;30.70;46.00
43949;DHT22;29429;51.074;13.764;2022-07-29T12:18:59;30.90;45.20
43949;DHT22;29429;51.074;13.764;2022-07-29T12:21:55;31.00;45.20
43949;DHT22;29429;51.074;13.764;2022-07-29T12:24:26;31.30;44.80
43949;DHT22;29429;51.074;13.764;2022-07-29T12:27:10;31.50;44.50
43949;DHT22;29429;51.074;13.764;2022-07-29T12:29:39;31.60;44.20
43949;DHT22;29429;51.074;13.764;2022-07-29T12:32:13;31.60;44.20
43949;DHT22;29429;51.074;13.764;2022-07-29T12:34:45;31.50;44.30
43949;DHT22;29429;51.074;13.764;2022-07-29T12:37:13;31.30;44.50
43949;DHT22;29429;51.074;13.764;2022-07-29T12:39:40;31.00;44.60
43949;DHT22;29429;51.074;13.764;2022-07-29T12:42:14;30.70;45.50
43949;DHT22;29429;51.074;13.764;2022-07-29T12:44:49;30.60;45.90
43949;DHT22;29429;51.074;13.764;2022-07-29T12:47:25;30.60;46.30
43949;DHT22;29429;51.074;13.764;2022-07-29T12:50:14;30.60;46.50
43949;DHT22;29429;51.074;13.764;2022-07-29T12:52:48;30.60;45.80
43949;DHT22;29429;51.074;13.764;2022-07-29T12:55:37;30.50;46.20
43949;DHT22;29429;51.074;13.764;2022-07-29T12:58:07;30.50;46.40
43949;DHT22;29429;51.074;13.764;2022-07-29T13:00:34;30.50;46.40
43949;DHT22;29429;51.074;13.764;2022-07-29T13:03:01;30.50;45.90
43949;DHT22;29429;51.074;13.764;2022-07-29T13:05:43;30.50;46.20
43949;DHT22;29429;51.074;13.764;2022-07-29T13:08:17;30.60;46.00
43949;DHT22;29429;51.074;13.764;2022-07-29T13:10:48;30.60;46.00
43949;DHT22;29429;51.074;13.764;2022-07-29T13:13:15;30.60;46.20
43949;DHT22;29429;51.074;13.764;2022-07-29T13:15:44;30.60;45.80
43949;DHT22;29429;51.074;13.764;2022-07-29T13:18:34;30.60;45.90
43949;DHT22;29429;51.074;13.764;2022-07-29T13:21:12;30.60;45.90
43949;DHT22;29429;51.074;13.764;2022-07-29T13:23:42;30.60;46.00
43949;DHT22;29429;51.074;13.764;2022-07-29T13:26:10;30.60;46.00
43949;DHT22;29429;51.074;13.764;2022-07-29T13:28:38;30.60;45.70
43949;DHT22;29429;51.074;13.764;2022-07-29T13:31:05;30.50;45.70
43949;DHT22;29429;51.074;13.764;2022-07-29T13:33:32;30.60;45.50
43949;DHT22;29429;51.074;13.764;2022-07-29T13:35:59;30.60;45.40
43949;DHT22;29429;51.074;13.764;2022-07-29T13:38:27;30.60;45.70
43949;DHT22;29429;51.074;13.764;2022-07-29T13:40:57;30.70;45.20
43949;DHT22;29429;51.074;13.764;2022-07-29T13:43:24;30.60;45.50
43949;DHT22;29429;51.074;13.764;2022-07-29T13:45:51;30.50;45.60
43949;DHT22;29429;51.074;13.764;2022-07-29T13:48:18;30.40;45.40
43949;DHT22;29429;51.074;13.764;2022-07-29T13:50:45;30.30;46.10
43949;DHT22;29429;51.074;13.764;2022-07-29T13:53:13;30.30;46.30
43949;DHT22;29429;51.074;13.764;2022-07-29T13:55:43;30.40;46.30
43949;DHT22;29429;51.074;13.764;2022-07-29T13:58:10;30.30;46.10
43949;DHT22;29429;51.074;13.764;2022-07-29T14:00:37;30.20;46.20
43949;DHT22;29429;51.074;13.764;2022-07-29T14:03:04;30.10;46.30
43949;DHT22;29429;51.074;13.764;2022-07-29T14:05:53;30.00;46.60
43949;DHT22;29429;51.074;13.764;2022-07-29T14:08:35;29.90;46.80
43949;DHT22;29429;51.074;13.764;2022-07-29T14:11:02;29.90;47.00
43949;DHT22;29429;51.074;13.764;2022-07-29T14:13:31;29.90;46.90
43949;DHT22;29429;51.074;13.764;2022-07-29T14:15:58;29.90;47.10
43949;DHT22;29429;51.074;13.764;2022-07-29T14:18:24;29.90;46.70
43949;DHT22;29429;51.074;13.764;2022-07-29T14:20:51;30.00;46.80
43949;DHT22;29429;51.074;13.764;2022-07-29T14:23:18;30.00;46.20
43949;DHT22;29429;51.074;13.764;2022-07-29T14:25:46;30.10;46.30
43949;DHT22;29429;51.074;13.764;2022-07-29T14:28:15;30.00;46.00
43949;DHT22;29429;51.074;13.764;2022-07-29T14:30:42;30.20;45.90
43949;DHT22;29429;51.074;13.764;2022-07-29T14:33:10;30.00;46.20
43949;DHT22;29429;51.074;13.764;2022-07-29T14:35:36;29.90;46.20
43949;DHT22;29429;51.074;13.764;2022-07-29T14:38:03;29.80;46.20
43949;DHT22;29429;51.074;13.764;2022-07-29T14:40:30;29.60;46.10
43949;DHT22;29429;51.074;13.764;2022-07-29T14:42:57;29.50;46.60
43949;DHT22;29429;51.074;13.764;2022-07-29T14:45:24;29.50;46.70
43949;DHT22;29429;51.074;13.764;2022-07-29T14:47:51;29.60;47.00
43949;DHT22;29429;51.074;13.764;2022-07-29T14:50:23;29.70;47.20
43949;DHT22;29429;51.074;13.764;2022-07-29T14:52:58;29.80;46.80
43949;DHT22;29429;51.074;13.764;2022-07-29T14:55:26;30.10;46.70
43949;DHT22;29429;51.074;13.764;2022-07-29T14:57:53;30.20;46.30
43949;DHT22;29429;51.074;13.764;2022-07-29T15:00:31;30.20;46.00
43949;DHT22;29429;51.074;13.764;2022-07-29T15:03:00;30.30;45.90
43949;DHT22;29429;51.074;13.764;2022-07-29T15:05:29;30.10;46.00
43949;DHT22;29429;51.074;13.764;2022-07-29T15:07:58;30.10;46.30
43949;DHT22;29429;51.074;13.764;2022-07-29T15:10:26;30.00;46.40
43949;DHT22;29429;51.074;13.764;2022-07-29T15:12:54;29.80;46.30
43949;DHT22;29429;51.074;13.764;2022-07-29T15:15:22;29.70;46.80
43949;DHT22;29429;51.074;13.764;2022-07-29T15:17:49;29.50;46.90
43949;DHT22;29429;51.074;13.764;2022-07-29T15:20:16;29.40;47.50
43949;DHT22;29429;51.074;13.764;2022-07-29T15:22:43;29.20;47.60
43949;DHT22;29429;51.074;13.764;2022-07-29T15:25:10;29.00;47.90
43949;DHT22;29429;51.074;13.764;2022-07-29T15:27:37;28.90;48.40
43949;DHT22;29429;51.074;13.764;2022-07-29T15:30:04;28.70;48.60
43949;DHT22;29429;51.074;13.764;2022-07-29T15:32:32;28.70;48.90
43949;DHT22;29429;51.074;13.764;2022-07-29T15:34:59;28.50;49.20
43949;DHT22;29429;51.074;13.764;2022-07-29T15:37:26;28.40;49.20
43949;DHT22;29429;51.074;13.764;2022-07-29T15:40:14;28.40;49.70
43949;DHT22;29429;51.074;13.764;2022-07-29T15:42:41;28.30;49.90
43949;DHT22;29429;51.074;13.764;2022-07-29T15:45:09;28.30;49.60
43949;DHT22;29429;51.074;13.764;2022-07-29T15:47:36;28.20;49.60
43949;DHT22;29429;51.074;13.764;2022-07-29T15:50:03;28.10;49.80
43949;DHT22;29429;51.074;13.764;2022-07-29T15:52:30;28.10;49.80
43949;DHT22;29429;51.074;13.764;2022-07-29T15:54:57;28.10;49.80
43949;DHT22;29429;51.074;13.764;2022-07-29T15:57:24;28.10;50.10
43949;DHT22;29429;51.074;13.764;2022-07-29T15:59:51;28.10;50.20
43949;DHT22;29429;51.074;13.764;2022-07-29T16:02:19;28.10;50.30
43949;DHT22;29429;51.074;13.764;2022-07-29T16:04:46;28.20;50.30
43949;DHT22;29429;51.074;13.764;2022-07-29T16:07:14;28.30;49.40
43949;DHT22;29429;51.074;13.764;2022-07-29T16:09:42;28.30;49.50
43949;DHT22;29429;51.074;13.764;2022-07-29T16:12:09;28.40;49.30
43949;DHT22;29429;51.074;13.764;2022-07-29T16:14:42;28.40;49.40
43949;DHT22;29429;51.074;13.764;2022-07-29T16:17:10;28.40;49.50
43949;DHT22;29429;51.074;13.764;2022-07-29T16:20:14;28.40;49.30
43949;DHT22;29429;51.074;13.764;2022-07-29T16:31:39;28.30;49.40
43949;DHT22;29429;51.074;13.764;2022-07-29T16:37:39;27.90;50.30